Time;durP1;ratioP1;P1;durP2;ratioP2;P2;SDS_P1;SDS_P2;PMS_P1;PMS_P2;Temp;Humidity;BMP_temperature;BMP_pressure;BME280_temperature;BME280_humidity;BME280_pressure;Samples;Min_cycle;Max_cycle;Signal;HPM_P1;HPM_P2
2022/11/23 00:01:09;;;;;;;4.50;2.30;;;9.40;99.90;;;;;;4944645;28;20480;-67
2022/11/23 00:03:34;;;;;;;4.50;2.40;;;9.40;99.90;;;;;;4938005;28;20468;-67
2022/11/23 00:06:01;;;;;;;4.10;1.90;;;9.40;99.90;;;;;;5011575;28;20444;-67
2022/11/23 00:08:26;;;;;;;4.00;1.90;;;9.40;99.90;;;;;;4943186;28;20699;-67
2022/11/23 00:10:52;;;;;;;5.80;2.10;;;9.40;99.90;;;;;;4945892;28;20466;-67
2022/11/23 00:13:18;;;;;;;4.10;1.97;;;9.40;99.90;;;;;;4943536;28;20668;-67
2022/11/23 00:15:43;;;;;;;6.13;1.93;;;9.50;99.90;;;;;;4939898;28;20597;-67
2022/11/23 00:18:09;;;;;;;6.97;2.10;;;9.50;99.90;;;;;;4937531;28;20531;-66
2022/11/23 00:20:34;;;;;;;9.80;2.60;;;9.40;99.90;;;;;;4945314;28;20891;-66
2022/11/23 00:23:00;;;;;;;7.83;2.40;;;9.50;99.90;;;;;;4939202;28;20679;-66
2022/11/23 00:25:26;;;;;;;5.43;1.87;;;9.40;99.90;;;;;;4939340;28;20226;-66
2022/11/23 00:27:51;;;;;;;6.93;2.30;;;9.40;99.90;;;;;;4947700;28;20570;-66
2022/11/23 00:30:17;;;;;;;7.00;2.10;;;9.30;99.90;;;;;;4947884;28;20562;-66
2022/11/23 00:32:42;;;;;;;6.00;2.20;;;9.30;99.90;;;;;;4940853;28;20184;-66
2022/11/23 00:35:08;;;;;;;3.40;1.73;;;9.20;99.90;;;;;;4940549;28;20499;-66
2022/11/23 00:37:33;;;;;;;3.63;2.00;;;9.20;99.90;;;;;;4947785;28;20209;-66
2022/11/23 00:39:59;;;;;;;6.00;2.23;;;9.10;99.90;;;;;;4938576;28;20186;-66
2022/11/23 00:42:24;;;;;;;3.60;2.10;;;9.10;99.90;;;;;;4941168;28;20211;-66
2022/11/23 00:44:50;;;;;;;4.33;2.17;;;9.10;99.90;;;;;;4941496;28;20187;-67
2022/11/23 00:47:15;;;;;;;4.10;1.97;;;9.10;99.90;;;;;;4940216;28;20210;-67
2022/11/23 00:49:41;;;;;;;4.37;1.90;;;9.10;99.90;;;;;;4944358;28;20175;-67
2022/11/23 00:52:06;;;;;;;4.30;1.87;;;9.10;99.90;;;;;;4948184;28;20211;-67
2022/11/23 00:54:32;;;;;;;5.80;2.00;;;9.10;99.90;;;;;;4950907;28;20207;-67
2022/11/23 00:56:57;;;;;;;4.20;2.07;;;9.10;99.90;;;;;;4947546;28;20203;-67
2022/11/23 00:59:23;;;;;;;5.87;2.57;;;9.20;99.90;;;;;;4947438;28;20960;-67
2022/11/23 01:01:49;;;;;;;4.37;1.90;;;9.20;99.90;;;;;;4943242;28;20230;-67
2022/11/23 01:04:14;;;;;;;4.60;2.07;;;9.20;99.90;;;;;;4942803;28;20298;-67
2022/11/23 01:06:40;;;;;;;5.23;1.93;;;9.20;99.90;;;;;;4953346;28;20218;-67
2022/11/23 01:09:12;;;;;;;3.90;1.73;;;9.20;99.90;;;;;;4942015;28;20211;-67
2022/11/23 01:11:37;;;;;;;7.10;2.40;;;9.20;99.90;;;;;;4943715;28;20190;-67
2022/11/23 01:14:03;;;;;;;5.40;2.20;;;9.10;99.90;;;;;;4946063;28;20533;-67
2022/11/23 01:16:35;;;;;;;8.30;2.37;;;9.10;99.90;;;;;;4937815;28;20588;-67
2022/11/23 01:19:04;;;;;;;6.37;2.10;;;9.10;99.90;;;;;;4938588;28;20808;-67
2022/11/23 01:21:31;;;;;;;4.00;2.07;;;9.10;99.90;;;;;;4939879;28;20509;-67
2022/11/23 01:23:57;;;;;;;3.63;1.80;;;9.20;99.90;;;;;;4939667;28;20526;-67
2022/11/23 01:26:23;;;;;;;6.57;2.07;;;9.20;99.90;;;;;;4940298;28;21090;-67
2022/11/23 01:28:50;;;;;;;6.10;2.40;;;9.20;99.90;;;;;;4940319;28;20248;-67
2022/11/23 01:31:21;;;;;;;3.90;1.80;;;9.20;99.90;;;;;;4943512;28;20458;-67
2022/11/23 01:33:46;;;;;;;2.13;1.60;;;9.20;99.90;;;;;;4938197;28;20801;-67
2022/11/23 01:36:15;;;;;;;5.30;1.60;;;9.20;99.90;;;;;;4939021;28;20430;-67
2022/11/23 01:38:41;;;;;;;4.70;2.03;;;9.20;99.90;;;;;;4939917;28;21781;-67
2022/11/23 01:41:11;;;;;;;9.43;1.93;;;9.30;99.90;;;;;;4941152;28;20506;-67
2022/11/23 01:43:37;;;;;;;6.50;2.17;;;9.20;99.90;;;;;;4939510;28;20450;-67
2022/11/23 01:46:03;;;;;;;3.63;1.67;;;9.30;99.90;;;;;;4944381;28;20434;-67
2022/11/23 01:48:39;;;;;;;4.03;3.30;;;9.20;99.90;;;;;;4937305;28;20471;-67
2022/11/23 01:51:13;;;;;;;3.83;1.90;;;9.30;99.90;;;;;;4936911;28;21181;-67
2022/11/23 01:53:40;;;;;;;3.50;1.87;;;9.30;99.90;;;;;;4941234;28;20461;-67
2022/11/23 01:56:09;;;;;;;5.40;1.77;;;9.30;99.90;;;;;;4939282;28;20478;-67
2022/11/23 01:58:41;;;;;;;2.23;1.53;;;9.40;99.90;;;;;;4938192;28;20562;-67
2022/11/23 02:01:07;;;;;;;4.03;2.00;;;9.40;99.90;;;;;;4937424;28;20505;-67
2022/11/23 02:03:35;;;;;;;8.00;1.83;;;9.40;99.90;;;;;;4936950;28;20474;-68
2022/11/23 02:06:03;;;;;;;6.03;1.80;;;9.40;99.90;;;;;;4938640;28;20225;-67
2022/11/23 02:08:30;;;;;;;5.37;2.10;;;9.40;99.90;;;;;;4944915;28;20459;-68
2022/11/23 02:10:57;;;;;;;8.90;2.10;;;9.40;99.90;;;;;;4937832;28;21729;-66
2022/11/23 02:13:24;;;;;;;8.13;1.90;;;9.50;99.90;;;;;;4946047;28;20493;-67
2022/11/23 02:15:51;;;;;;;4.47;1.73;;;9.50;99.90;;;;;;4943589;28;20435;-67
2022/11/23 02:18:22;;;;;;;3.27;1.80;;;9.50;99.90;;;;;;4938729;28;20443;-67
2022/11/23 02:20:48;;;;;;;6.23;2.40;;;9.50;99.90;;;;;;4945065;28;20723;-67
2022/11/23 02:23:36;;;;;;;3.70;2.07;;;9.50;99.90;;;;;;4951031;28;20450;-69
2022/11/23 02:26:09;;;;;;;3.50;1.90;;;9.50;99.90;;;;;;4941283;28;20439;-66
2022/11/23 02:28:41;;;;;;;4.67;1.80;;;9.60;99.90;;;;;;4940473;28;20463;-66
2022/11/23 02:31:07;;;;;;;3.50;1.73;;;9.60;99.90;;;;;;4937561;28;20497;-66
2022/11/23 02:33:32;;;;;;;2.83;2.20;;;9.60;99.90;;;;;;4938818;28;20912;-66
2022/11/23 02:35:59;;;;;;;3.10;1.50;;;9.50;99.90;;;;;;4952282;28;20190;-67
2022/11/23 02:38:32;;;;;;;4.27;1.87;;;9.60;99.90;;;;;;4941055;28;20207;-67
2022/11/23 02:40:58;;;;;;;5.10;2.00;;;9.50;99.90;;;;;;4937279;28;20470;-67
2022/11/23 02:43:24;;;;;;;2.83;1.87;;;9.60;99.90;;;;;;4936466;28;20450;-67
2022/11/23 02:45:53;;;;;;;4.07;2.00;;;9.70;99.90;;;;;;4941817;28;20183;-66
2022/11/23 02:48:18;;;;;;;3.13;1.70;;;9.70;99.90;;;;;;4945157;28;20209;-67
2022/11/23 02:50:44;;;;;;;3.57;1.93;;;9.60;99.90;;;;;;4951826;28;20529;-67
2022/11/23 02:53:10;;;;;;;5.77;1.90;;;9.60;99.90;;;;;;4943281;28;20553;-67
2022/11/23 02:55:36;;;;;;;8.13;1.77;;;9.60;99.90;;;;;;4951532;28;20492;-67
2022/11/23 02:58:03;;;;;;;2.90;1.50;;;9.50;99.90;;;;;;4946941;28;20453;-67
2022/11/23 03:00:29;;;;;;;5.43;2.47;;;9.50;99.90;;;;;;4950117;28;20818;-67
2022/11/23 03:02:54;;;;;;;4.60;2.10;;;9.50;99.90;;;;;;4950434;28;20435;-67
2022/11/23 03:05:20;;;;;;;4.60;1.60;;;9.60;99.90;;;;;;4944038;28;20195;-66
2022/11/23 03:07:45;;;;;;;10.27;1.90;;;9.50;99.90;;;;;;4953918;28;20215;-67
2022/11/23 03:10:11;;;;;;;5.50;2.00;;;9.40;99.90;;;;;;4950777;28;20720;-66
2022/11/23 03:12:37;;;;;;;6.40;1.97;;;9.50;99.90;;;;;;4942908;28;20238;-66
2022/11/23 03:15:03;;;;;;;7.10;2.10;;;9.50;99.90;;;;;;4943936;28;20191;-66
2022/11/23 03:17:29;;;;;;;5.00;1.60;;;9.50;99.90;;;;;;4939723;28;20187;-66
2022/11/23 03:19:54;;;;;;;5.77;2.07;;;9.50;99.90;;;;;;4943250;28;20442;-66
2022/11/23 03:22:20;;;;;;;7.80;2.23;;;9.50;99.90;;;;;;4938928;28;20481;-66
2022/11/23 03:24:46;;;;;;;2.83;1.73;;;9.40;99.90;;;;;;4944009;28;20186;-66
2022/11/23 03:27:11;;;;;;;3.80;1.83;;;9.40;99.90;;;;;;4939577;28;20207;-66
2022/11/23 03:29:37;;;;;;;4.90;1.80;;;9.40;99.90;;;;;;4943587;28;20186;-67
2022/11/23 03:32:03;;;;;;;7.63;2.20;;;9.30;99.90;;;;;;4939571;28;20955;-66
2022/11/23 03:34:28;;;;;;;4.40;2.10;;;9.20;99.90;;;;;;4941963;28;20545;-67
2022/11/23 03:36:54;;;;;;;7.10;1.90;;;9.20;99.90;;;;;;4941300;28;20200;-66
2022/11/23 03:39:19;;;;;;;7.00;1.80;;;9.20;99.90;;;;;;4938582;28;20200;-67
2022/11/23 03:41:45;;;;;;;6.47;2.37;;;9.20;99.90;;;;;;4943778;28;20246;-66
2022/11/23 03:44:11;;;;;;;3.43;1.60;;;9.20;99.90;;;;;;4943442;28;20728;-66
2022/11/23 03:46:37;;;;;;;3.60;1.87;;;9.20;99.90;;;;;;4941155;28;21229;-66
2022/11/23 03:49:02;;;;;;;4.90;2.30;;;9.20;99.90;;;;;;4941369;28;20577;-66
2022/11/23 03:51:28;;;;;;;6.30;2.10;;;9.20;99.90;;;;;;4940181;28;20358;-67
2022/11/23 03:53:53;;;;;;;6.40;2.03;;;9.20;99.90;;;;;;4939974;28;20265;-66
2022/11/23 03:56:19;;;;;;;5.17;2.03;;;9.10;99.90;;;;;;4939456;28;20179;-67
2022/11/23 03:58:44;;;;;;;8.50;3.23;;;9.10;99.90;;;;;;4939861;28;20207;-67
2022/11/23 04:01:10;;;;;;;4.10;2.33;;;9.10;99.90;;;;;;4936406;28;20218;-67
2022/11/23 04:03:36;;;;;;;10.70;2.40;;;9.00;99.90;;;;;;4944391;28;20584;-68
2022/11/23 04:06:01;;;;;;;4.93;1.90;;;9.00;99.90;;;;;;5004639;28;20202;-68
2022/11/23 04:08:27;;;;;;;8.57;1.97;;;9.00;99.90;;;;;;4940734;28;20275;-67
2022/11/23 04:10:56;;;;;;;5.23;1.90;;;9.00;99.90;;;;;;4941366;28;20573;-67
2022/11/23 04:13:22;;;;;;;3.27;1.80;;;9.00;99.90;;;;;;4940093;28;20280;-67
2022/11/23 04:15:48;;;;;;;6.80;1.80;;;9.00;99.90;;;;;;4938701;28;21386;-68
2022/11/23 04:18:13;;;;;;;4.40;2.27;;;9.00;99.90;;;;;;4942401;28;20180;-68
2022/11/23 04:20:39;;;;;;;5.53;1.93;;;9.00;99.90;;;;;;4942899;28;20241;-67
2022/11/23 04:23:04;;;;;;;2.87;1.80;;;9.00;99.90;;;;;;4944850;28;20652;-67
2022/11/23 04:25:30;;;;;;;2.80;1.70;;;9.00;99.90;;;;;;5007939;28;20682;-67
2022/11/23 04:27:56;;;;;;;4.00;2.07;;;9.00;99.90;;;;;;5007397;28;20634;-67
2022/11/23 04:30:21;;;;;;;5.50;2.20;;;9.00;99.90;;;;;;4947969;28;20179;-68
2022/11/23 04:32:47;;;;;;;7.63;1.93;;;9.00;99.90;;;;;;4958243;28;20180;-68
2022/11/23 04:35:13;;;;;;;4.63;2.17;;;9.00;99.90;;;;;;4946348;28;20327;-68
2022/11/23 04:37:38;;;;;;;5.57;1.80;;;9.00;99.90;;;;;;4943037;28;20534;-67
2022/11/23 04:40:04;;;;;;;6.73;2.03;;;9.00;99.90;;;;;;4944811;28;20455;-68
2022/11/23 04:42:30;;;;;;;6.63;2.87;;;9.00;99.90;;;;;;4948640;28;20686;-68
2022/11/23 04:44:56;;;;;;;7.60;1.97;;;9.00;99.90;;;;;;4940219;28;20443;-66
2022/11/23 04:47:23;;;;;;;4.50;1.90;;;9.00;99.90;;;;;;4944854;28;20215;-66
2022/11/23 04:49:48;;;;;;;5.00;2.30;;;9.00;99.90;;;;;;4941977;28;20488;-66
2022/11/23 04:52:14;;;;;;;5.77;2.10;;;9.00;99.90;;;;;;4941706;28;20500;-66
2022/11/23 04:54:39;;;;;;;3.17;2.00;;;8.90;99.90;;;;;;4942967;28;20180;-67
2022/11/23 04:57:05;;;;;;;6.00;2.67;;;8.90;99.90;;;;;;4944910;28;20195;-67
2022/11/23 04:59:30;;;;;;;3.00;1.80;;;8.90;99.90;;;;;;4946949;28;20278;-67
2022/11/23 05:01:56;;;;;;;5.00;2.20;;;8.90;99.90;;;;;;4944252;28;20226;-67
2022/11/23 05:04:22;;;;;;;3.87;2.10;;;8.90;99.90;;;;;;5008745;28;20652;-67
2022/11/23 05:06:47;;;;;;;7.00;2.80;;;8.90;99.90;;;;;;4941340;28;20199;-67
2022/11/23 05:09:15;;;;;;;8.33;2.80;;;8.90;99.90;;;;;;4941934;28;20677;-72
2022/11/23 05:11:41;;;;;;;9.10;3.13;;;8.90;99.90;;;;;;4943555;28;20722;-66
2022/11/23 05:14:07;;;;;;;5.63;2.50;;;8.90;99.90;;;;;;4944313;28;20427;-68
2022/11/23 05:16:32;;;;;;;7.20;3.00;;;8.90;99.90;;;;;;4943939;28;20556;-67
2022/11/23 05:18:58;;;;;;;5.60;2.70;;;8.90;99.90;;;;;;4945674;28;20194;-67
2022/11/23 05:21:24;;;;;;;5.60;3.07;;;8.90;99.90;;;;;;4941152;28;20230;-68
2022/11/23 05:23:49;;;;;;;4.47;2.67;;;8.90;99.90;;;;;;5003161;28;20199;-68
2022/11/23 05:26:15;;;;;;;8.40;2.90;;;8.90;99.90;;;;;;4944123;28;20187;-68
2022/11/23 05:28:40;;;;;;;7.67;2.43;;;8.90;99.90;;;;;;4938392;28;20207;-67
2022/11/23 05:31:06;;;;;;;4.10;2.97;;;8.90;99.90;;;;;;4941922;28;20211;-68
2022/11/23 05:33:32;;;;;;;3.10;2.27;;;8.80;99.90;;;;;;4942969;28;20198;-68
2022/11/23 05:35:58;;;;;;;4.33;2.80;;;8.80;99.90;;;;;;4940368;28;20435;-67
2022/11/23 05:38:23;;;;;;;5.83;2.60;;;8.80;99.90;;;;;;4941109;28;20694;-68
2022/11/23 05:40:49;;;;;;;6.43;2.67;;;8.80;99.90;;;;;;4942607;28;20215;-68
2022/11/23 05:43:14;;;;;;;5.40;2.67;;;8.70;99.90;;;;;;4941018;28;20218;-67
2022/11/23 05:45:40;;;;;;;7.10;3.70;;;8.70;99.90;;;;;;4940290;28;20228;-67
2022/11/23 05:48:06;;;;;;;4.43;2.53;;;8.70;99.90;;;;;;4939652;28;20231;-68
2022/11/23 05:50:31;;;;;;;7.60;2.70;;;8.70;99.90;;;;;;4943392;28;20207;-68
2022/11/23 05:52:58;;;;;;;5.80;2.60;;;8.60;99.90;;;;;;4953232;28;20660;-68
2022/11/23 05:55:24;;;;;;;6.03;2.10;;;8.60;99.90;;;;;;4943396;28;20266;-68
2022/11/23 05:57:49;;;;;;;3.23;2.10;;;8.60;99.90;;;;;;4947342;28;20869;-67
2022/11/23 06:00:15;;;;;;;7.33;2.53;;;8.50;99.90;;;;;;4944381;28;21354;-67
2022/11/23 06:02:41;;;;;;;5.70;2.40;;;8.60;99.90;;;;;;4939862;28;20214;-67
2022/11/23 06:05:07;;;;;;;6.23;2.10;;;8.50;99.90;;;;;;4945299;28;20446;-68
2022/11/23 06:07:34;;;;;;;4.37;2.40;;;8.50;99.90;;;;;;4940871;28;20208;-68
2022/11/23 06:10:00;;;;;;;6.23;2.13;;;8.50;99.90;;;;;;4941138;28;20438;-67
2022/11/23 06:12:29;;;;;;;6.40;3.10;;;8.50;99.90;;;;;;4946175;28;20816;-68
2022/11/23 06:14:55;;;;;;;8.23;3.13;;;8.50;99.90;;;;;;4944164;28;20537;-67
2022/11/23 06:17:21;;;;;;;6.13;2.90;;;8.40;99.90;;;;;;4942777;28;20458;-67
2022/11/23 06:19:46;;;;;;;7.20;3.00;;;8.40;99.90;;;;;;4950608;28;20195;-67
2022/11/23 06:22:14;;;;;;;4.07;2.60;;;8.40;99.90;;;;;;4944907;28;20260;-67
2022/11/23 06:24:40;;;;;;;5.70;2.73;;;8.40;99.90;;;;;;4939249;28;20219;-68
2022/11/23 06:27:05;;;;;;;6.77;2.60;;;8.40;99.90;;;;;;4944826;28;20939;-68
2022/11/23 06:29:31;;;;;;;6.10;2.57;;;8.30;99.90;;;;;;4945653;28;20550;-67
2022/11/23 06:31:57;;;;;;;7.77;3.23;;;8.30;99.90;;;;;;4942987;28;20592;-68
2022/11/23 06:34:22;;;;;;;6.60;4.20;;;8.30;99.90;;;;;;4944984;28;20637;-69
2022/11/23 06:36:48;;;;;;;6.97;2.97;;;8.30;99.90;;;;;;4942355;28;20215;-67
2022/11/23 06:39:13;;;;;;;13.90;4.50;;;8.30;99.90;;;;;;4957069;28;20246;-69
2022/11/23 06:41:39;;;;;;;16.23;5.10;;;8.20;99.90;;;;;;4946490;28;20273;-68
2022/11/23 06:44:04;;;;;;;11.80;4.00;;;8.20;99.90;;;;;;4943060;28;20187;-68
2022/11/23 06:46:30;;;;;;;8.37;4.20;;;8.20;99.90;;;;;;4949396;28;20555;-68
2022/11/23 06:48:56;;;;;;;6.93;3.60;;;8.20;99.90;;;;;;4944658;28;20572;-68
2022/11/23 06:51:22;;;;;;;11.23;4.40;;;8.20;99.90;;;;;;4941549;28;20469;-68
2022/11/23 06:53:47;;;;;;;12.10;5.03;;;8.20;99.90;;;;;;4944640;28;20756;-68
2022/11/23 06:56:13;;;;;;;10.97;4.60;;;8.10;99.90;;;;;;4945157;28;20183;-68
2022/11/23 06:58:39;;;;;;;10.57;5.20;;;8.10;99.90;;;;;;4961878;23;21229;-73
2022/11/23 07:01:07;;;;;;;9.27;4.93;;;8.10;99.90;;;;;;4997512;28;20179;-74
2022/11/23 07:03:33;;;;;;;11.30;4.33;;;8.10;99.90;;;;;;5033145;28;20628;-73
2022/11/23 07:05:58;;;;;;;10.30;4.27;;;8.10;99.90;;;;;;4957605;28;20545;-75
2022/11/23 07:08:24;;;;;;;12.20;4.50;;;8.10;99.90;;;;;;4957135;28;20247;-73
2022/11/23 07:10:50;;;;;;;11.77;5.50;;;8.10;99.90;;;;;;4964081;28;20225;-72
2022/11/23 07:13:16;;;;;;;15.10;5.27;;;8.10;99.90;;;;;;4968260;28;20234;-72
2022/11/23 07:15:42;;;;;;;14.30;5.73;;;8.10;99.90;;;;;;4961887;28;20182;-75
2022/11/23 07:18:09;;;;;;;13.80;5.90;;;8.10;99.90;;;;;;4959823;28;20566;-72
2022/11/23 07:20:35;;;;;;;15.23;7.27;;;8.10;99.90;;;;;;4958094;28;20452;-71
2022/11/23 07:23:07;;;;;;;14.43;5.40;;;8.10;99.90;;;;;;4963011;28;20457;-73
2022/11/23 07:25:34;;;;;;;13.10;5.57;;;8.10;99.90;;;;;;4961520;28;20693;-73
2022/11/23 07:28:02;;;;;;;10.50;4.90;;;8.10;99.90;;;;;;4960765;28;20468;-73
2022/11/23 07:30:30;;;;;;;14.03;5.13;;;8.10;99.90;;;;;;4958316;28;20437;-74
2022/11/23 07:33:00;;;;;;;11.30;5.30;;;8.10;99.90;;;;;;4960525;28;20461;-73
2022/11/23 07:35:26;;;;;;;13.50;4.73;;;8.10;99.90;;;;;;4959939;28;20435;-73
2022/11/23 07:37:52;;;;;;;13.97;5.40;;;8.10;99.90;;;;;;4959617;28;20485;-73
2022/11/23 07:40:17;;;;;;;17.40;5.33;;;8.10;99.90;;;;;;4958141;28;20187;-72
2022/11/23 07:42:43;;;;;;;13.93;4.57;;;8.10;99.90;;;;;;5022875;28;20252;-73
2022/11/23 07:45:09;;;;;;;12.53;5.87;;;8.10;99.90;;;;;;5017611;28;20191;-73
2022/11/23 07:47:35;;;;;;;15.93;5.43;;;8.10;99.90;;;;;;5021652;28;20206;-73
2022/11/23 07:50:01;;;;;;;16.40;6.10;;;8.10;99.90;;;;;;5011585;28;20434;-73
2022/11/23 07:52:27;;;;;;;12.23;5.53;;;8.10;99.90;;;;;;5020786;28;20488;-74
2022/11/23 07:54:52;;;;;;;13.20;5.30;;;8.10;99.90;;;;;;5045456;28;20187;-74
2022/11/23 07:57:18;;;;;;;10.07;5.70;;;8.20;99.90;;;;;;4960862;28;20187;-73
2022/11/23 07:59:43;;;;;;;12.40;5.30;;;8.20;99.90;;;;;;4960959;28;20218;-72
2022/11/23 08:02:13;;;;;;;14.47;5.53;;;8.20;99.90;;;;;;4962543;28;20182;-73
2022/11/23 08:04:39;;;;;;;9.30;5.40;;;8.20;99.90;;;;;;4963533;28;20194;-73
2022/11/23 08:07:06;;;;;;;11.70;6.47;;;8.30;99.90;;;;;;4959528;28;20473;-73
2022/11/23 08:09:31;;;;;;;12.23;5.57;;;8.30;99.90;;;;;;4960828;28;20233;-73
2022/11/23 08:11:57;;;;;;;17.03;5.97;;;8.30;99.90;;;;;;5028515;28;20446;-74
2022/11/23 08:14:23;;;;;;;12.03;6.20;;;8.30;99.90;;;;;;4964256;28;20206;-74
2022/11/23 08:16:49;;;;;;;19.13;6.30;;;8.30;99.90;;;;;;4957022;28;20182;-74
2022/11/23 08:19:16;;;;;;;13.57;5.00;;;8.30;99.90;;;;;;4952996;28;20837;-74
2022/11/23 08:21:41;;;;;;;10.33;4.87;;;8.40;99.90;;;;;;4950717;28;20442;-76
2022/11/23 08:24:07;;;;;;;18.00;5.90;;;8.40;99.90;;;;;;4954211;28;21096;-74
2022/11/23 08:26:33;;;;;;;8.87;4.20;;;8.40;99.90;;;;;;4957003;28;20183;-73
2022/11/23 08:28:58;;;;;;;8.43;3.23;;;8.50;99.90;;;;;;5028134;28;20733;-73
2022/11/23 08:31:24;;;;;;;9.97;3.50;;;8.50;99.90;;;;;;4952328;28;20270;-73
2022/11/23 08:33:49;;;;;;;5.70;3.27;;;8.60;99.90;;;;;;4950453;28;20221;-74
2022/11/23 08:36:15;;;;;;;7.73;3.00;;;8.60;99.90;;;;;;4956853;28;20347;-71
2022/11/23 08:38:41;;;;;;;6.47;2.70;;;8.60;99.90;;;;;;4956853;28;20669;-74
2022/11/23 08:41:07;;;;;;;7.53;3.17;;;8.70;99.90;;;;;;4951847;28;20252;-73
2022/11/23 08:43:33;;;;;;;10.53;3.50;;;8.80;99.90;;;;;;4957824;28;20895;-72
2022/11/23 08:46:00;;;;;;;8.10;3.37;;;8.80;99.90;;;;;;4953933;28;20475;-72
2022/11/23 08:48:26;;;;;;;7.83;3.07;;;8.80;99.90;;;;;;4965483;28;20488;-71
2022/11/23 08:50:52;;;;;;;25.33;3.17;;;8.90;99.90;;;;;;4970657;28;20422;-73
2022/11/23 08:53:18;;;;;;;12.20;3.10;;;9.00;99.90;;;;;;4963494;28;20552;-71
2022/11/23 08:55:44;;;;;;;8.17;2.83;;;9.00;99.90;;;;;;5026583;28;20506;-73
2022/11/23 08:58:11;;;;;;;5.10;2.47;;;9.00;99.90;;;;;;4960322;28;20698;-72
2022/11/23 09:00:36;;;;;;;11.17;3.30;;;9.00;99.90;;;;;;4959361;28;20261;-72
2022/11/23 09:03:02;;;;;;;7.50;3.67;;;9.10;99.90;;;;;;4962664;28;20552;-72
2022/11/23 09:05:29;;;;;;;9.07;3.03;;;9.10;99.90;;;;;;4963845;28;20589;-73
2022/11/23 09:07:58;;;;;;;9.13;3.20;;;9.20;99.90;;;;;;4967091;28;20466;-74
2022/11/23 09:10:24;;;;;;;4.10;2.60;;;9.20;99.90;;;;;;4964833;28;20486;-73
2022/11/23 09:12:50;;;;;;;4.47;2.30;;;9.30;99.90;;;;;;4955851;28;20462;-73
2022/11/23 09:15:16;;;;;;;8.27;2.80;;;9.40;99.90;;;;;;4959409;28;20458;-73
2022/11/23 09:17:42;;;;;;;6.87;2.80;;;9.40;99.90;;;;;;4962498;28;20191;-72
2022/11/23 09:20:09;;;;;;;3.03;1.80;;;9.50;99.90;;;;;;4965533;28;20431;-73
2022/11/23 09:22:34;;;;;;;5.37;3.10;;;9.50;99.90;;;;;;4964915;28;20454;-73
2022/11/23 09:25:00;;;;;;;12.73;2.70;;;9.50;99.90;;;;;;4965452;28;20507;-74
2022/11/23 09:27:26;;;;;;;5.13;2.80;;;9.50;99.90;;;;;;4961058;28;20205;-74
2022/11/23 09:29:51;;;;;;;6.73;3.40;;;9.70;99.90;;;;;;4972287;28;20191;-74
2022/11/23 09:32:17;;;;;;;6.00;3.17;;;9.70;99.90;;;;;;4960348;28;20261;-74
2022/11/23 09:34:44;;;;;;;7.30;2.53;;;9.80;99.90;;;;;;4966553;28;20279;-73
2022/11/23 09:37:10;;;;;;;5.97;2.83;;;9.80;99.90;;;;;;4960151;28;20595;-74
2022/11/23 09:39:36;;;;;;;5.13;2.60;;;9.80;99.90;;;;;;4961151;28;20430;-73
2022/11/23 09:42:39;;;;;;;5.67;2.80;;;9.90;99.90;;;;;;4962190;28;20859;-74
2022/11/23 09:45:19;;;;;;;9.93;2.57;;;10.00;99.90;;;;;;4951302;28;20198;-74
2022/11/23 09:48:14;;;;;;;3.10;2.10;;;10.00;99.90;;;;;;4957072;28;21024;-73
2022/11/23 09:50:49;;;;;;;4.80;2.10;;;10.00;99.90;;;;;;4956656;28;20431;-72
2022/11/23 09:53:26;;;;;;;5.53;2.20;;;10.10;99.90;;;;;;4961321;28;20472;-74
2022/11/23 09:55:56;;;;;;;5.77;2.40;;;10.10;99.90;;;;;;4958793;28;20438;-72
2022/11/23 09:58:26;;;;;;;6.23;2.63;;;10.20;99.90;;;;;;5025409;28;20552;-72
2022/11/23 10:01:09;;;;;;;3.43;1.97;;;10.20;99.90;;;;;;4961699;28;21218;-73
2022/11/23 10:03:38;;;;;;;6.10;2.07;;;10.30;99.90;;;;;;4963626;28;20518;-74
2022/11/23 10:06:25;;;;;;;7.50;2.27;;;10.50;99.90;;;;;;4959085;28;20450;-74
2022/11/23 10:09:15;;;;;;;4.30;1.93;;;10.60;99.90;;;;;;4960605;28;20526;-74
2022/11/23 10:11:44;;;;;;;6.40;2.30;;;10.50;99.90;;;;;;4963586;28;20968;-73
2022/11/23 10:14:24;;;;;;;5.17;2.17;;;10.50;99.90;;;;;;4965740;28;20446;-73
2022/11/23 10:17:10;;;;;;;7.23;1.90;;;10.60;99.90;;;;;;5015878;28;20437;-74
2022/11/23 10:20:09;;;;;;;4.13;2.00;;;10.70;99.90;;;;;;4958466;28;20458;-73
2022/11/23 10:22:40;;;;;;;5.67;1.87;;;10.70;99.90;;;;;;4960823;28;20477;-72
2022/11/23 10:25:17;;;;;;;6.80;2.10;;;10.70;99.90;;;;;;4960262;28;21147;-73
2022/11/23 10:27:46;;;;;;;6.80;2.50;;;10.70;99.90;;;;;;4961714;28;20471;-72
2022/11/23 10:30:13;;;;;;;12.30;2.50;;;10.70;99.90;;;;;;4970836;28;20434;-74
2022/11/23 10:32:55;;;;;;;4.53;1.80;;;10.90;99.90;;;;;;4960367;28;21746;-73
2022/11/23 10:35:31;;;;;;;6.10;2.07;;;11.00;99.90;;;;;;4964955;28;20480;-73
2022/11/23 10:38:15;;;;;;;7.60;2.07;;;11.00;99.90;;;;;;4960179;28;20502;-71
2022/11/23 10:40:56;;;;;;;5.47;2.30;;;11.10;99.90;;;;;;4959490;28;20497;-74
2022/11/23 10:43:25;;;;;;;7.10;1.90;;;11.10;99.90;;;;;;4959710;28;20560;-71
2022/11/23 10:46:11;;;;;;;5.63;1.90;;;11.10;99.90;;;;;;5029892;28;20437;-72
2022/11/23 10:48:36;;;;;;;23.83;3.23;;;11.20;99.90;;;;;;4961993;28;20989;-74
2022/11/23 10:51:20;;;;;;;4.93;2.00;;;11.30;99.90;;;;;;4963471;28;20443;-73
2022/11/23 10:53:55;;;;;;;4.77;2.40;;;11.30;99.90;;;;;;4963890;28;20202;-74
2022/11/23 10:56:22;;;;;;;5.70;2.60;;;11.30;99.90;;;;;;4958110;28;20437;-72
2022/11/23 10:58:47;;;;;;;6.93;1.93;;;11.30;99.90;;;;;;4960323;28;20539;-74
2022/11/23 11:01:24;;;;;;;5.07;2.43;;;11.40;99.90;;;;;;4963885;28;20433;-74
2022/11/23 11:03:55;;;;;;;6.03;2.10;;;11.30;99.90;;;;;;4961126;28;20586;-75
2022/11/23 11:06:26;;;;;;;7.23;2.60;;;11.20;99.90;;;;;;4964018;28;20476;-73
2022/11/23 11:09:00;;;;;;;6.47;2.80;;;11.30;99.90;;;;;;4966526;28;20461;-73
2022/11/23 11:11:29;;;;;;;2.77;2.00;;;11.50;99.90;;;;;;4962430;28;20430;-72
2022/11/23 11:14:13;;;;;;;5.73;2.20;;;11.50;99.90;;;;;;4965465;28;20540;-73
2022/11/23 11:16:46;;;;;;;8.67;3.60;;;11.50;99.90;;;;;;4963621;28;20450;-71
2022/11/23 11:19:33;;;;;;;6.30;1.50;;;11.50;99.90;;;;;;4965065;28;20543;-72
2022/11/23 11:22:01;;;;;;;4.20;1.90;;;11.60;99.90;;;;;;5045414;28;20445;-73
2022/11/23 11:24:31;;;;;;;6.00;1.90;;;11.70;99.90;;;;;;4963213;28;20830;-71
2022/11/23 11:27:00;;;;;;;6.63;2.20;;;11.80;99.90;;;;;;4960143;28;20472;-72
2022/11/23 11:29:37;;;;;;;7.83;2.00;;;11.70;99.90;;;;;;4958439;28;20442;-73
2022/11/23 11:32:10;;;;;;;6.83;2.20;;;11.70;99.90;;;;;;4958211;28;20453;-72
2022/11/23 11:35:07;;;;;;;9.27;3.40;;;11.80;99.90;;;;;;4962325;28;20434;-73
2022/11/23 11:37:41;;;;;;;9.40;2.00;;;12.00;99.90;;;;;;4960817;28;20441;-72
2022/11/23 11:40:29;;;;;;;9.27;2.30;;;12.00;99.90;;;;;;4964843;28;20836;-71
2022/11/23 11:43:13;;;;;;;10.73;2.53;;;11.90;99.90;;;;;;4966263;28;20471;-73
2022/11/23 11:45:42;;;;;;;3.70;2.10;;;12.00;99.90;;;;;;4961446;28;20437;-72
2022/11/23 11:48:14;;;;;;;6.97;2.23;;;12.20;99.90;;;;;;4961019;28;21140;-72
2022/11/23 11:50:51;;;;;;;11.23;2.77;;;12.40;99.90;;;;;;5026040;28;20438;-73
2022/11/23 11:53:35;;;;;;;6.20;3.07;;;12.50;99.90;;;;;;4961245;28;20872;-73
2022/11/23 11:56:13;;;;;;;3.40;1.80;;;12.70;99.90;;;;;;4965406;28;20992;-73
2022/11/23 11:58:47;;;;;;;5.90;3.07;;;12.90;99.90;;;;;;4960729;28;20891;-72
2022/11/23 12:01:34;;;;;;;4.20;2.40;;;13.40;99.90;;;;;;4962871;28;20464;-73
2022/11/23 12:04:06;;;;;;;5.13;2.10;;;14.70;99.90;;;;;;4959839;28;20984;-75
2022/11/23 12:06:38;;;;;;;4.00;2.10;;;16.00;99.90;;;;;;5020991;28;20443;-74
2022/11/23 12:09:30;;;;;;;6.07;2.67;;;17.20;99.90;;;;;;5031490;28;20457;-74
2022/11/23 12:11:56;;;;;;;4.90;2.60;;;18.20;99.90;;;;;;4960342;28;20472;-75
2022/11/23 12:14:22;;;;;;;5.00;2.40;;;19.30;99.90;;;;;;4963497;28;21062;-74
2022/11/23 12:17:09;;;;;;;5.57;2.63;;;20.10;99.90;;;;;;4965914;28;20533;-74
2022/11/23 12:19:45;;;;;;;8.90;4.20;;;20.40;96.20;;;;;;4961243;28;20478;-75
2022/11/23 12:22:42;;;;;;;3.20;2.03;;;21.20;96.40;;;;;;4964102;28;20469;-75
2022/11/23 12:25:24;;;;;;;6.40;3.00;;;21.70;92.40;;;;;;4962262;28;20437;-74
2022/11/23 12:28:19;;;;;;;5.27;2.23;;;22.30;91.30;;;;;;4966942;28;20929;-74
2022/11/23 12:30:57;;;;;;;4.00;2.10;;;22.90;85.80;;;;;;4958682;28;20461;-73
2022/11/23 12:33:49;;;;;;;4.07;2.40;;;23.40;83.90;;;;;;4964112;28;20857;-73
2022/11/23 12:36:21;;;;;;;5.87;2.63;;;23.90;77.50;;;;;;5019356;28;20651;-75
2022/11/23 12:39:07;;;;;;;4.30;2.50;;;24.50;78.80;;;;;;4962885;28;20437;-73
2022/11/23 12:41:51;;;;;;;5.87;3.00;;;24.80;75.00;;;;;;4964441;28;20786;-73
2022/11/23 12:44:49;;;;;;;4.00;2.37;;;25.10;72.50;;;;;;4959635;28;20494;-73
2022/11/23 12:47:34;;;;;;;4.27;2.47;;;25.20;66.10;;;;;;4965373;28;20526;-74
2022/11/23 12:50:36;;;;;;;7.13;2.50;;;24.80;64.50;;;;;;4970207;28;20430;-75
2022/11/23 12:53:26;;;;;;;6.87;2.90;;;24.60;64.20;;;;;;4969486;28;20719;-75
2022/11/23 12:56:16;;;;;;;4.13;2.13;;;24.00;61.60;;;;;;4957131;28;20453;-73
2022/11/23 12:58:45;;;;;;;2.90;2.43;;;23.50;63.80;;;;;;4952423;28;20462;-73
2022/11/23 13:01:33;;;;;;;4.90;2.90;;;23.30;64.70;;;;;;4955274;28;20518;-75
2022/11/23 13:04:24;;;;;;;4.63;2.50;;;23.20;64.00;;;;;;4957345;28;20487;-74